Time;durP1;ratioP1;P1;durP2;ratioP2;P2;SDS_P1;SDS_P2;PMS_P1;PMS_P2;Temp;Humidity;BMP_temperature;BMP_pressure;BME280_temperature;BME280_humidity;BME280_pressure;Samples;Min_cycle;Max_cycle;Signal;HPM_P1;HPM_P2
2021/12/29 00:04:17;;;;;;;2.75;1.80;;;;;;;17.62;54.79;95674.16;10404490;28;20053;-19
2021/12/29 00:09:17;;;;;;;2.60;1.67;;;;;;;17.61;55.15;95687.66;10406749;28;20407;-19
2021/12/29 00:14:18;;;;;;;5.60;2.17;;;;;;;17.62;55.05;95700.31;10397016;28;20084;-20
2021/12/29 00:19:18;;;;;;;2.40;1.95;;;;;;;17.62;54.62;95694.41;10398338;28;20292;-19
2021/12/29 00:24:19;;;;;;;3.23;1.73;;;;;;;17.61;54.94;95718.03;10405786;28;20052;-19
2021/12/29 00:29:19;;;;;;;3.78;1.90;;;;;;;17.62;54.85;95719.72;10403331;28;20091;-22
2021/12/29 00:34:39;;;;;;;2.08;1.75;;;;;;;17.63;54.83;95706.19;10404330;28;20174;-20
2021/12/29 00:39:58;;;;;;;2.45;1.67;;;;;;;17.67;54.67;95718.78;10411747;28;20072;-20
2021/12/29 00:45:17;;;;;;;2.45;1.80;;;;;;;17.65;54.59;95720.50;10410524;28;20026;-20
2021/12/29 00:50:18;;;;;;;2.93;1.60;;;;;;;17.65;54.60;95719.69;10408100;28;20034;-19
2021/12/29 00:55:19;;;;;;;2.00;1.55;;;;;;;17.64;54.65;95733.16;10411346;28;20284;-19
2021/12/29 01:00:22;;;;;;;2.92;1.80;;;;;;;17.64;54.65;95745.81;10409136;28;20503;-19
2021/12/29 01:05:23;;;;;;;1.92;1.50;;;;;;;17.63;54.78;95754.28;10403958;28;20103;-19
2021/12/29 01:10:23;;;;;;;1.85;1.50;;;;;;;17.61;54.85;95774.56;10407115;28;20029;-19
2021/12/29 01:15:31;;;;;;;2.33;1.40;;;;;;;17.61;54.62;95778.78;10411091;28;20037;-20
2021/12/29 01:20:33;;;;;;;2.03;1.52;;;;;;;17.62;54.79;95791.41;10403178;28;20053;-20
2021/12/29 01:25:34;;;;;;;3.03;1.40;;;;;;;17.65;54.46;95788.03;10405172;28;20053;-20
2021/12/29 01:30:34;;;;;;;2.93;1.67;;;;;;;17.67;54.40;95793.91;10410434;28;20038;-20
2021/12/29 01:35:37;;;;;;;2.67;1.83;;;;;;;17.56;54.68;95788.94;10406615;28;20033;-20
2021/12/29 01:40:39;;;;;;;1.63;1.40;;;;;;;17.64;54.60;95820.06;10404171;28;20044;-19
2021/12/29 01:45:40;;;;;;;1.95;1.20;;;;;;;17.64;54.89;95811.63;10408953;28;20113;-20
2021/12/29 01:50:40;;;;;;;2.80;1.38;;;;;;;17.65;54.84;95811.63;10404911;28;20041;-20
2021/12/29 01:55:41;;;;;;;2.92;1.55;;;;;;;17.60;54.70;95815.91;10410929;28;20037;-20
2021/12/29 02:00:42;;;;;;;1.20;1.10;;;;;;;17.64;54.54;95834.41;10401724;28;20037;-20
2021/12/29 02:05:44;;;;;;;3.53;1.70;;;;;;;17.63;54.63;95837.81;10407800;28;20559;-20
2021/12/29 02:10:46;;;;;;;2.33;1.48;;;;;;;17.64;54.50;95836.94;10409734;28;20379;-20
2021/12/29 02:15:47;;;;;;;2.15;1.50;;;;;;;17.65;54.57;95843.72;10406976;28;20033;-20
2021/12/29 02:20:50;;;;;;;2.95;1.40;;;;;;;17.69;54.73;95863.06;10400882;28;20503;-20
2021/12/29 02:25:53;;;;;;;1.77;1.25;;;;;;;17.67;54.60;95859.72;10405980;28;20057;-20
2021/12/29 02:30:55;;;;;;;2.08;1.48;;;;;;;17.67;54.68;95869.84;10404009;28;20036;-20
2021/12/29 02:35:58;;;;;;;1.58;1.17;;;;;;;17.69;54.54;95879.09;10401130;28;20533;-20
2021/12/29 02:41:08;;;;;;;2.47;1.60;;;;;;;17.66;54.54;95879.09;10406019;28;20065;-20
2021/12/29 02:46:12;;;;;;;2.42;1.98;;;;;;;17.65;54.62;95882.50;10407728;28;20102;-20
2021/12/29 02:51:12;;;;;;;2.65;1.65;;;;;;;17.67;54.60;95885.03;10401865;28;20029;-20
2021/12/29 02:56:13;;;;;;;1.90;1.33;;;;;;;17.66;54.58;95888.41;10406803;28;20455;-20
2021/12/29 03:01:15;;;;;;;1.73;1.40;;;;;;;17.64;54.65;95885.88;10405685;28;20284;-20
2021/12/29 03:06:16;;;;;;;1.80;1.15;;;;;;;17.62;54.51;95892.66;10405579;28;20472;-20
2021/12/29 03:11:17;;;;;;;1.50;1.17;;;;;;;17.70;54.48;95905.22;10401626;28;20395;-19
2021/12/29 03:16:18;;;;;;;1.65;0.98;;;;;;;17.69;54.41;95890.91;10406707;28;20028;-19
2021/12/29 03:21:19;;;;;;;1.33;1.20;;;;;;;17.67;54.39;95900.22;10399086;28;20061;-19
2021/12/29 03:26:19;;;;;;;1.83;1.40;;;;;;;17.66;54.52;95908.66;10406506;28;20061;-20
2021/12/29 03:31:21;;;;;;;2.00;1.05;;;;;;;17.66;54.65;95898.53;10397595;28;20419;-19
2021/12/29 03:36:22;;;;;;;2.08;1.27;;;;;;;17.67;54.56;95910.34;10395775;28;20388;-20
2021/12/29 03:41:24;;;;;;;1.42;1.25;;;;;;;17.62;54.37;95902.78;10406039;28;20033;-20
2021/12/29 03:46:26;;;;;;;4.63;1.13;;;;;;;17.66;54.46;95914.53;10404642;28;20041;-20
2021/12/29 03:51:26;;;;;;;1.75;1.15;;;;;;;17.65;54.46;95912.03;10400613;28;20059;-20
2021/12/29 03:56:26;;;;;;;1.73;1.40;;;;;;;17.69;54.46;95923.81;10401667;28;20038;-20
2021/12/29 04:01:27;;;;;;;1.67;0.93;;;;;;;17.69;55.04;95919.59;10405243;28;20029;-20
2021/12/29 04:06:27;;;;;;;1.47;1.23;;;;;;;17.70;54.28;95922.94;10405683;28;20299;-20
2021/12/29 04:11:28;;;;;;;1.67;1.23;;;;;;;17.71;54.36;95924.63;10411705;28;20300;-19
2021/12/29 04:16:28;;;;;;;2.23;1.00;;;;;;;17.65;54.35;95912.03;10413789;28;20087;-20
2021/12/29 04:21:28;;;;;;;2.13;1.00;;;;;;;17.65;54.43;95917.13;10405751;28;20029;-19
2021/12/29 04:26:31;;;;;;;1.20;0.97;;;;;;;17.66;54.59;95918.78;10406788;28;20080;-20
2021/12/29 04:31:32;;;;;;;1.67;1.20;;;;;;;17.67;54.26;95923.00;10412597;28;20472;-20
2021/12/29 04:36:33;;;;;;;2.03;1.20;;;;;;;17.66;54.48;95929.72;10405723;28;20053;-20
2021/12/29 04:41:34;;;;;;;2.58;1.77;;;;;;;17.66;54.26;95944.09;10409882;28;20029;-20
2021/12/29 04:46:39;;;;;;;2.08;1.08;;;;;;;17.71;54.11;95947.41;10406247;28;20475;-20
2021/12/29 04:51:51;;;;;;;1.23;1.10;;;;;;;17.74;54.20;95947.41;10409432;28;20076;-19
2021/12/29 04:56:52;;;;;;;1.42;1.10;;;;;;;17.73;54.26;95953.31;10410902;28;20472;-20
2021/12/29 05:01:53;;;;;;;1.70;1.17;;;;;;;17.75;54.03;95949.06;10410897;28;20025;-19
2021/12/29 05:12:13;;;;;;;1.55;1.10;;;;;;;17.75;54.09;95951.59;10410276;28;20037;-20
2021/12/29 05:17:13;;;;;;;1.20;0.82;;;;;;;17.76;54.14;95951.56;10409746;28;20040;-20
2021/12/29 05:22:13;;;;;;;1.30;0.90;;;;;;;17.77;54.19;95955.81;10402907;28;20076;-19
2021/12/29 05:27:14;;;;;;;1.60;1.13;;;;;;;17.79;54.13;95964.22;10403526;28;20037;-19
2021/12/29 05:32:14;;;;;;;1.80;0.98;;;;;;;17.83;54.14;95972.63;10411515;28;20291;-20
2021/12/29 05:37:15;;;;;;;1.40;1.20;;;;;;;17.77;54.31;95975.19;10403363;28;20033;-20
2021/12/29 05:42:15;;;;;;;1.30;1.10;;;;;;;17.84;54.60;95989.50;10409521;28;20638;-20
2021/12/29 05:47:16;;;;;;;2.28;1.27;;;;;;;17.85;54.70;95986.09;10409860;28;20069;-20
2021/12/29 05:52:16;;;;;;;1.35;0.98;;;;;;;17.84;54.63;95984.44;10404705;28;20029;-19
2021/12/29 05:57:16;;;;;;;3.27;1.10;;;;;;;17.86;54.32;95987.78;10406884;28;20049;-20
2021/12/29 06:02:17;;;;;;;3.42;1.88;;;;;;;17.88;54.31;95994.50;10408282;28;20330;-20
2021/12/29 06:07:17;;;;;;;4.50;2.65;;;;;;;17.81;54.35;95989.50;10407840;28;20523;-20
2021/12/29 06:12:18;;;;;;;8.07;2.42;;;;;;;17.85;54.15;95991.16;10401910;28;20025;-19
2021/12/29 06:17:18;;;;;;;5.32;2.10;;;;;;;17.85;54.43;95999.63;10407960;28;20071;-19
2021/12/29 06:22:19;;;;;;;3.83;2.00;;;;;;;17.84;54.55;95992.03;10400290;28;20021;-19
2021/12/29 06:27:23;;;;;;;6.53;2.77;;;;;;;17.84;54.59;96000.44;10407118;28;20037;-20
2021/12/29 06:32:23;;;;;;;4.57;2.92;;;;;;;17.86;54.27;96003.81;10399196;28;20315;-20
2021/12/29 06:37:24;;;;;;;4.40;1.80;;;;;;;17.91;54.14;96017.25;10401583;28;20156;-19
2021/12/29 06:42:24;;;;;;;3.90;1.77;;;;;;;17.89;54.32;96024.03;10404083;28;20292;-19
2021/12/29 06:47:26;;;;;;;6.47;1.90;;;;;;;17.86;54.63;96028.28;10407539;28;20095;-20
2021/12/29 06:52:26;;;;;;;4.97;1.98;;;;;;;17.87;54.58;96051.06;10402100;28;20327;-20
2021/12/29 06:57:27;;;;;;;2.77;1.50;;;;;;;17.84;54.67;96040.94;10404649;28;20468;-19
2021/12/29 07:02:27;;;;;;;5.90;2.08;;;;;;;17.85;54.81;96051.94;10407075;28;20322;-19
2021/12/29 07:07:28;;;;;;;3.47;1.93;;;;;;;17.84;55.11;96055.31;10405432;28;20083;-20
2021/12/29 07:12:28;;;;;;;3.70;1.73;;;;;;;17.82;55.01;96055.31;10405535;28;20044;-20
2021/12/29 07:17:28;;;;;;;3.50;1.90;;;;;;;17.82;55.08;96064.63;10406787;28;20299;-20
2021/12/29 07:22:29;;;;;;;3.00;2.23;;;;;;;17.82;54.79;96062.09;10398996;28;20040;-19
2021/12/29 07:27:30;;;;;;;2.70;1.73;;;;;;;17.87;54.88;96075.53;10404046;28;20292;-20
2021/12/29 07:32:31;;;;;;;4.72;1.90;;;;;;;17.89;55.02;96068.78;10405538;28;20030;-20
2021/12/29 07:37:32;;;;;;;2.58;1.95;;;;;;;17.85;54.83;96065.44;10400645;28;20176;-19
2021/12/29 07:42:38;;;;;;;3.80;1.40;;;;;;;17.84;55.12;96065.44;10410157;28;20030;-20
2021/12/29 07:47:44;;;;;;;3.47;2.87;;;;;;;17.82;55.25;96064.63;10415011;28;20789;-20
2021/12/29 07:52:48;;;;;;;1.98;1.58;;;;;;;17.80;55.04;96073.91;10411795;28;20127;-19
2021/12/29 07:57:48;;;;;;;2.58;1.30;;;;;;;17.82;54.88;96082.34;10411646;28;20044;-20
2021/12/29 08:02:50;;;;;;;1.85;1.20;;;;;;;17.80;55.47;96089.09;10411197;28;20064;-19
2021/12/29 08:07:51;;;;;;;2.80;1.83;;;;;;;17.79;55.29;96102.59;10413970;28;20045;-21
2021/12/29 08:12:51;;;;;;;2.00;1.30;;;;;;;17.79;55.27;96088.28;10410449;28;20033;-20
2021/12/29 08:17:52;;;;;;;2.53;1.53;;;;;;;17.84;55.00;96089.06;10410815;28;20292;-20
2021/12/29 08:22:52;;;;;;;2.47;1.50;;;;;;;17.86;54.93;96104.25;10409664;28;20646;-20
2021/12/29 08:27:53;;;;;;;1.73;1.23;;;;;;;17.86;54.85;96109.31;10407875;28;20365;-20
2021/12/29 08:32:53;;;;;;;4.10;1.58;;;;;;;17.85;55.27;96112.69;10409932;28;20304;-20
2021/12/29 08:37:54;;;;;;;2.80;1.48;;;;;;;17.83;55.15;96114.41;10410479;28;20522;-20
2021/12/29 08:42:58;;;;;;;2.17;1.02;;;;;;;17.81;55.16;96121.16;10407607;28;20022;-20
2021/12/29 08:48:00;;;;;;;1.70;1.20;;;;;;;17.81;55.34;96118.63;10405031;28;20029;-20
2021/12/29 08:53:03;;;;;;;2.28;1.33;;;;;;;17.81;55.34;96131.28;10410227;28;20129;-20
2021/12/29 08:58:06;;;;;;;2.88;1.23;;;;;;;17.79;55.24;96123.72;10409154;28;20041;-20
2021/12/29 09:03:07;;;;;;;2.50;1.38;;;;;;;17.80;55.29;96129.59;10411820;28;20017;-20
2021/12/29 09:08:07;;;;;;;3.58;1.50;;;;;;;17.83;55.17;96130.44;10412839;28;20029;-20
2021/12/29 09:13:08;;;;;;;1.77;1.30;;;;;;;17.87;55.18;96131.25;10409767;28;20041;-20
2021/12/29 09:18:08;;;;;;;1.63;1.00;;;;;;;17.90;54.91;96138.84;10406091;28;20722;-20
2021/12/29 09:23:08;;;;;;;2.25;1.13;;;;;;;17.87;55.09;96121.13;10409207;28;20025;-20
2021/12/29 09:28:12;;;;;;;1.48;1.30;;;;;;;17.85;55.03;96117.78;10409346;28;20419;-20
2021/12/29 09:33:15;;;;;;;1.60;1.25;;;;;;;17.85;55.03;96127.91;10404148;28;20026;-20
2021/12/29 09:38:17;;;;;;;2.30;1.30;;;;;;;17.85;55.13;96143.09;10410255;28;20112;-20
2021/12/29 09:43:18;;;;;;;1.83;1.10;;;;;;;17.82;55.15;96133.00;10402075;28;20379;-19
2021/12/29 09:48:19;;;;;;;1.42;1.00;;;;;;;17.82;55.09;96140.59;10406060;28;20033;-20
2021/12/29 09:53:20;;;;;;;1.98;1.33;;;;;;;17.83;55.27;96154.94;10409296;28;20392;-19
2021/12/29 09:58:21;;;;;;;1.67;1.30;;;;;;;17.59;55.08;96119.63;10407705;28;20033;-20
2021/12/29 10:03:27;;;;;;;1.88;1.70;;;;;;;17.83;55.18;96176.00;10399507;28;20472;-19
2021/12/29 10:08:33;;;;;;;1.27;1.08;;;;;;;17.86;55.10;96175.16;10409473;28;20033;-20
2021/12/29 10:13:37;;;;;;;2.50;1.27;;;;;;;17.87;55.01;96181.91;10407311;28;20071;-20
2021/12/29 10:18:41;;;;;;;1.35;0.90;;;;;;;17.87;55.33;96181.91;10401926;28;20034;-20
2021/12/29 10:23:46;;;;;;;2.58;1.60;;;;;;;17.84;54.90;96177.69;10408268;28;20446;-20
2021/12/29 10:28:52;;;;;;;1.80;1.00;;;;;;;17.84;55.22;96176.84;10402440;28;20116;-20
2021/12/29 10:33:54;;;;;;;1.27;1.17;;;;;;;17.84;54.91;96177.69;10400238;28;20033;-19
2021/12/29 10:39:02;;;;;;;1.02;0.77;;;;;;;17.74;54.90;96180.31;10407699;28;20036;-20
2021/12/29 10:44:06;;;;;;;2.05;1.00;;;;;;;17.86;54.94;96190.34;10404847;28;20029;-20
2021/12/29 10:49:08;;;;;;;1.20;1.00;;;;;;;17.88;54.94;96171.78;10403901;28;20030;-20
2021/12/29 10:54:14;;;;;;;1.38;0.82;;;;;;;17.88;54.88;96170.91;10407063;28;20039;-20
2021/12/29 10:59:19;;;;;;;0.90;0.80;;;;;;;17.89;54.87;96150.66;10401987;28;20032;-20
2021/12/29 11:04:21;;;;;;;1.45;1.10;;;;;;;17.94;54.63;96153.16;10405999;28;20112;-19
2021/12/29 11:09:24;;;;;;;1.73;1.15;;;;;;;17.94;54.76;96143.88;10399531;28;20092;-19
2021/12/29 11:14:28;;;;;;;1.80;1.10;;;;;;;17.88;54.85;96138.00;10404004;28;20042;-20
2021/12/29 11:19:29;;;;;;;2.08;1.10;;;;;;;17.89;54.82;96124.47;10399205;28;20037;-20
2021/12/29 11:24:29;;;;;;;1.13;1.02;;;;;;;17.91;54.74;96113.50;10407867;28;20037;-20
2021/12/29 11:29:30;;;;;;;1.23;0.90;;;;;;;17.91;54.56;96110.97;10405349;28;20040;-19
2021/12/29 11:34:30;;;;;;;1.60;0.93;;;;;;;17.90;54.59;96090.72;10399523;28;20025;-19
2021/12/29 11:39:34;;;;;;;1.27;0.80;;;;;;;17.94;54.68;96097.44;10406161;28;20032;-19
2021/12/29 11:44:35;;;;;;;1.20;0.80;;;;;;;17.93;54.58;96106.72;10402156;28;20433;-20
2021/12/29 11:49:36;;;;;;;1.42;0.93;;;;;;;17.95;54.57;96105.03;10401696;28;20036;-20
2021/12/29 11:54:50;;;;;;;0.98;0.90;;;;;;;17.96;54.49;96109.25;10405690;28;20034;-20
2021/12/29 11:59:51;;;;;;;0.82;0.82;;;;;;;17.98;54.33;96107.53;10401541;28;20025;-20
2021/12/29 12:05:22;;;;;;;1.42;0.90;;;;;;;17.98;54.43;96099.13;10404626;28;20033;-20
2021/12/29 12:10:35;;;;;;;0.98;0.88;;;;;;;17.99;54.60;96080.53;10400919;28;20061;-20
2021/12/29 12:15:39;;;;;;;0.70;0.70;;;;;;;17.99;54.50;96072.94;10404201;28;20419;-19
2021/12/29 12:20:39;;;;;;;0.95;0.68;;;;;;;17.93;54.43;96065.38;10398518;28;20040;-20
2021/12/29 12:25:40;;;;;;;1.00;0.83;;;;;;;17.98;54.59;96069.53;10405457;28;20041;-20
2021/12/29 12:30:43;;;;;;;0.82;0.80;;;;;;;17.96;54.35;96070.41;10410582;28;20076;-20
2021/12/29 12:35:48;;;;;;;0.47;0.47;;;;;;;17.93;54.62;96081.38;10406081;28;20065;-19
2021/12/29 12:40:59;;;;;;;1.10;0.98;;;;;;;17.92;54.54;96056.09;10412403;28;20025;-20
2021/12/29 12:45:59;;;;;;;1.05;0.85;;;;;;;17.98;54.53;96043.41;10409491;28;20040;-20
2021/12/29 12:51:13;;;;;;;0.70;0.63;;;;;;;17.96;54.58;96061.13;10407573;28;20397;-20
2021/12/29 12:56:22;;;;;;;1.25;1.05;;;;;;;17.99;54.42;96055.19;10409082;28;20056;-20
2021/12/29 13:01:26;;;;;;;0.73;0.70;;;;;;;17.97;54.70;96077.13;10403652;28;20086;-19
2021/12/29 13:06:33;;;;;;;1.23;0.90;;;;;;;17.93;54.68;96085.63;10410761;28;20053;-20
2021/12/29 13:11:36;;;;;;;0.80;0.70;;;;;;;17.94;54.57;96074.66;10407986;28;20387;-20
2021/12/29 13:16:37;;;;;;;1.50;0.73;;;;;;;17.95;54.61;96087.31;10411820;28;20263;-20
2021/12/29 13:21:41;;;;;;;1.23;1.13;;;;;;;17.96;54.64;96085.59;10403392;28;20044;-20
2021/12/29 13:26:45;;;;;;;1.25;0.90;;;;;;;17.95;54.77;96083.91;10411170;28;20083;-20
2021/12/29 13:31:46;;;;;;;1.08;0.85;;;;;;;17.94;54.55;96083.09;10408798;28;20041;-20
2021/12/29 13:36:46;;;;;;;1.20;1.02;;;;;;;17.96;54.64;96076.31;10403783;28;20399;-20
2021/12/29 13:41:47;;;;;;;0.77;0.70;;;;;;;17.95;54.80;96077.19;10409380;28;20483;-20
2021/12/29 13:46:48;;;;;;;3.08;0.68;;;;;;;17.99;54.61;96090.66;10402140;28;20292;-20
2021/12/29 13:51:50;;;;;;;0.68;0.68;;;;;;;18.00;54.52;96092.34;10405200;28;20065;-20
2021/12/29 13:56:55;;;;;;;0.80;0.60;;;;;;;17.97;54.37;96077.13;10404460;28;20029;-19
2021/12/29 14:02:02;;;;;;;0.85;0.68;;;;;;;17.95;54.59;96089.00;10408940;28;20033;-20
2021/12/29 14:07:08;;;;;;;0.85;0.70;;;;;;;17.90;54.62;96073.81;10408486;28;20036;-20
2021/12/29 14:12:24;;;;;;;1.07;0.90;;;;;;;17.97;54.64;96095.72;10404871;28;20042;-20
2021/12/29 14:17:25;;;;;;;0.73;0.70;;;;;;;17.96;54.60;96090.66;10409091;28;20041;-20
2021/12/29 14:22:29;;;;;;;0.87;0.60;;;;;;;17.96;54.60;96095.72;10401184;28;20284;-19
2021/12/29 14:27:33;;;;;;;1.35;0.73;;;;;;;17.94;54.66;96097.44;10402776;28;20042;-20
2021/12/29 14:32:33;;;;;;;0.75;0.70;;;;;;;18.02;54.42;96100.75;10407442;28;20560;-20
2021/12/29 14:37:33;;;;;;;0.93;0.50;;;;;;;17.98;54.55;96109.25;10407563;28;20040;-19
2021/12/29 14:42:40;;;;;;;0.77;0.70;;;;;;;18.02;54.37;96111.75;10402473;28;20087;-19
2021/12/29 14:47:46;;;;;;;0.98;0.70;;;;;;;17.99;54.40;96121.06;10404939;28;20033;-20
2021/12/29 14:52:48;;;;;;;0.60;0.60;;;;;;;17.97;54.63;96137.94;10405261;28;20041;-19
2021/12/29 14:57:50;;;;;;;1.10;0.77;;;;;;;17.92;54.62;96127.00;10404250;28;20115;-20
2021/12/29 15:02:58;;;;;;;1.80;0.80;;;;;;;17.87;54.76;96127.03;10406238;28;21916;-20
2021/12/29 15:07:58;;;;;;;0.90;0.80;;;;;;;17.95;54.62;96129.50;10407271;28;20034;-19
2021/12/29 15:12:58;;;;;;;1.08;0.70;;;;;;;17.96;54.64;96138.78;10404828;28;20491;-20
2021/12/29 15:18:08;;;;;;;1.02;0.80;;;;;;;17.97;54.60;96131.19;10403212;28;20364;-20
2021/12/29 15:23:10;;;;;;;1.05;0.80;;;;;;;17.89;54.68;96114.34;10404965;28;20041;-20
2021/12/29 15:28:13;;;;;;;1.02;0.73;;;;;;;18.02;54.24;96134.53;10404989;28;20442;-19
2021/12/29 15:33:14;;;;;;;0.88;0.70;;;;;;;17.99;54.74;96136.25;10400398;28;20564;-20
2021/12/29 15:38:16;;;;;;;0.73;0.70;;;;;;;18.02;54.29;96133.69;10405117;28;20030;-20
2021/12/29 15:43:17;;;;;;;0.80;0.80;;;;;;;17.92;54.49;96117.69;10399404;28;20040;-20
2021/12/29 15:48:17;;;;;;;0.57;0.52;;;;;;;17.98;54.58;96125.25;10401858;28;20037;-20
2021/12/29 15:53:18;;;;;;;0.98;0.77;;;;;;;17.97;54.67;96121.06;10406790;28;20056;-19
2021/12/29 15:58:18;;;;;;;0.65;0.47;;;;;;;17.97;54.60;96132.84;10403929;28;20049;-20
2021/12/29 16:03:20;;;;;;;0.82;0.60;;;;;;;17.99;54.47;96144.66;10409355;28;20021;-19
2021/12/29 16:08:20;;;;;;;0.88;0.73;;;;;;;17.96;54.73;96151.44;10413812;28;20040;-20
2021/12/29 16:13:21;;;;;;;0.75;0.70;;;;;;;17.98;54.61;96154.84;10412230;28;20033;-19
2021/12/29 16:18:21;;;;;;;0.93;0.90;;;;;;;18.00;54.59;96148.06;10407958;28;20033;-20
2021/12/29 16:23:21;;;;;;;0.80;0.73;;;;;;;18.07;54.39;96149.69;10407773;28;20021;-19
2021/12/29 16:28:22;;;;;;;0.60;0.57;;;;;;;18.07;54.18;96153.06;10404780;28;20315;-20
2021/12/29 16:33:22;;;;;;;1.15;0.60;;;;;;;18.07;54.15;96125.19;10406137;28;20362;-20
2021/12/29 16:38:23;;;;;;;0.70;0.53;;;;;;;18.06;54.28;96132.78;10412464;28;20033;-20
2021/12/29 16:43:23;;;;;;;0.60;0.60;;;;;;;18.04;54.31;96142.09;10410669;28;20087;-20
2021/12/29 16:48:24;;;;;;;1.13;0.75;;;;;;;18.05;54.38;96136.19;10408057;28;20443;-20
2021/12/29 16:53:25;;;;;;;0.73;0.63;;;;;;;18.06;54.22;96136.19;10411909;28;20037;-20
2021/12/29 16:58:25;;;;;;;1.55;0.90;;;;;;;18.08;54.29;96131.09;10407151;28;20044;-20
2021/12/29 17:03:25;;;;;;;0.80;0.50;;;;;;;18.09;54.21;96147.97;10410639;28;20043;-20
2021/12/29 17:08:27;;;;;;;0.70;0.60;;;;;;;18.10;54.37;96149.66;10411297;28;20037;-20
2021/12/29 17:13:27;;;;;;;0.60;0.60;;;;;;;18.11;54.16;96143.75;10404675;28;20292;-20
2021/12/29 17:18:28;;;;;;;0.90;0.70;;;;;;;18.12;54.30;96155.53;10404123;28;20022;-20
2021/12/29 17:23:28;;;;;;;0.60;0.50;;;;;;;18.11;54.12;96158.94;10410783;28;20095;-20
2021/12/29 17:28:29;;;;;;;1.05;0.80;;;;;;;18.12;54.24;96161.47;10410275;28;20038;-20
2021/12/29 17:33:32;;;;;;;0.57;0.50;;;;;;;18.08;54.37;96156.44;10403725;28;20076;-19
2021/12/29 17:38:32;;;;;;;0.75;0.70;;;;;;;18.09;54.28;96168.25;10410271;28;20051;-20
2021/12/29 17:43:33;;;;;;;0.85;0.70;;;;;;;18.09;54.32;96178.38;10406708;28;20032;-20
2021/12/29 17:48:33;;;;;;;0.85;0.55;;;;;;;18.06;54.41;96158.13;10405881;28;20033;-20
2021/12/29 17:53:34;;;;;;;0.83;0.60;;;;;;;18.09;54.28;96184.28;10409987;28;20026;-19
2021/12/29 17:58:34;;;;;;;1.33;0.80;;;;;;;18.09;54.53;96201.19;10406332;28;20288;-20
2021/12/29 18:03:34;;;;;;;0.70;0.50;;;;;;;18.06;54.37;96206.25;10408515;28;20131;-20
2021/12/29 18:08:38;;;;;;;1.13;0.90;;;;;;;18.06;54.71;96223.97;10409187;28;20681;-20
2021/12/29 18:13:41;;;;;;;1.00;0.80;;;;;;;18.09;54.54;96223.97;10406808;28;20080;-20
2021/12/29 18:18:43;;;;;;;0.63;0.60;;;;;;;18.12;54.43;96229.00;10401895;28;20120;-20
2021/12/29 18:23:44;;;;;;;1.00;0.70;;;;;;;18.11;54.58;96227.34;10408411;28;20039;-20
2021/12/29 18:28:48;;;;;;;1.58;0.80;;;;;;;18.12;54.48;96234.06;10405877;28;20044;-20
2021/12/29 18:33:49;;;;;;;0.80;0.55;;;;;;;18.10;54.47;96230.72;10401840;28;20030;-20
2021/12/29 18:38:50;;;;;;;1.33;0.60;;;;;;;18.10;54.54;96233.25;10407819;28;20037;-19
2021/12/29 18:43:54;;;;;;;0.68;0.68;;;;;;;18.10;54.52;96241.72;10405596;28;20034;-20
2021/12/29 18:48:55;;;;;;;0.70;0.63;;;;;;;18.05;54.58;96224.84;10403279;28;20041;-19
2021/12/29 18:53:55;;;;;;;0.57;0.57;;;;;;;18.10;54.54;96218.91;10407064;28;20037;-20
2021/12/29 18:58:55;;;;;;;0.90;0.70;;;;;;;18.09;54.60;96246.78;10402465;28;20087;-20
2021/12/29 19:03:56;;;;;;;0.73;0.50;;;;;;;18.10;54.52;96256.91;10400603;28;20029;-19
2021/12/29 19:08:57;;;;;;;0.50;0.50;;;;;;;18.13;54.43;96261.94;10406774;28;20299;-20
2021/12/29 19:13:58;;;;;;;0.60;0.60;;;;;;;18.10;54.43;96261.13;10404465;28;20029;-19
2021/12/29 19:18:59;;;;;;;0.63;0.60;;;;;;;18.10;54.63;96269.56;10399887;28;20108;-20
2021/12/29 19:23:59;;;;;;;0.65;0.50;;;;;;;18.12;54.51;96272.06;10406781;28;20279;-19
2021/12/29 19:29:00;;;;;;;0.60;0.60;;;;;;;18.10;54.73;96271.25;10404723;28;20037;-20
2021/12/29 19:34:01;;;;;;;1.08;0.60;;;;;;;18.13;54.64;96276.28;10399655;28;20296;-20
2021/12/29 19:39:01;;;;;;;0.50;0.50;;;;;;;18.08;54.40;96272.97;10416957;28;20045;-20
2021/12/29 19:44:02;;;;;;;0.63;0.63;;;;;;;18.11;54.64;96290.66;10418141;28;20122;-20
2021/12/29 19:49:02;;;;;;;1.25;0.90;;;;;;;18.10;54.59;96314.31;10415696;28;20036;-19
2021/12/29 19:54:03;;;;;;;0.50;0.50;;;;;;;18.10;54.75;96321.91;10419489;28;20037;-20
2021/12/29 19:59:03;;;;;;;0.85;0.50;;;;;;;18.14;54.49;96313.44;10411884;28;20037;-20
2021/12/29 20:04:04;;;;;;;0.80;0.60;;;;;;;18.10;54.33;96314.31;10418546;28;20622;-20
2021/12/29 20:09:05;;;;;;;0.40;0.40;;;;;;;18.11;54.59;96333.72;10418861;28;20033;-20
2021/12/29 20:14:05;;;;;;;0.57;0.57;;;;;;;18.12;54.37;96350.63;10418560;28;20476;-19
2021/12/29 20:19:06;;;;;;;0.70;0.53;;;;;;;18.12;54.59;96353.16;10412026;28;20294;-19
2021/12/29 20:24:07;;;;;;;0.97;0.70;;;;;;;18.12;54.58;96373.41;10419358;28;20091;-20
2021/12/29 20:29:08;;;;;;;0.77;0.70;;;;;;;18.11;54.67;96379.34;10411366;28;20040;-20
2021/12/29 20:34:09;;;;;;;0.52;0.50;;;;;;;18.10;54.70;96367.53;10412681;28;20395;-20
2021/12/29 20:39:13;;;;;;;0.70;0.40;;;;;;;18.11;54.49;96374.25;10418708;28;20065;-20
2021/12/29 20:44:13;;;;;;;0.50;0.43;;;;;;;18.12;54.56;96396.22;10411924;28;20636;-20
2021/12/29 20:49:14;;;;;;;0.73;0.55;;;;;;;18.09;54.97;96393.69;10410433;28;20040;-20
2021/12/29 20:54:14;;;;;;;0.60;0.50;;;;;;;18.11;54.69;96392.00;10412155;28;20036;-20
2021/12/29 20:59:14;;;;;;;0.43;0.40;;;;;;;18.13;54.50;96402.97;10408915;28;20045;-20
2021/12/29 21:04:16;;;;;;;0.70;0.50;;;;;;;18.11;54.68;96399.59;10410512;28;21002;-20
2021/12/29 21:09:16;;;;;;;0.50;0.50;;;;;;;18.14;54.50;96424.91;10411472;28;20276;-19
2021/12/29 21:14:17;;;;;;;0.60;0.50;;;;;;;18.15;54.53;96441.81;10407752;28;20033;-20
2021/12/29 21:19:17;;;;;;;0.60;0.47;;;;;;;18.05;54.68;96424.94;10404435;28;20029;-20
2021/12/29 21:24:18;;;;;;;0.55;0.55;;;;;;;18.15;54.72;96449.44;10400993;28;20098;-20
2021/12/29 21:29:18;;;;;;;1.13;0.60;;;;;;;18.14;54.46;96461.22;10410832;28;20064;-20
2021/12/29 21:34:19;;;;;;;0.57;0.57;;;;;;;18.14;54.62;96466.31;10401305;28;20806;-20
2021/12/29 21:39:19;;;;;;;0.50;0.50;;;;;;;18.14;54.53;96476.44;10410013;28;20515;-19
2021/12/29 21:44:19;;;;;;;0.50;0.50;;;;;;;18.13;54.73;96478.97;10407383;28;20292;-20
2021/12/29 21:49:20;;;;;;;0.73;0.57;;;;;;;18.09;54.65;96497.56;10405418;28;20479;-20
2021/12/29 21:54:20;;;;;;;0.47;0.47;;;;;;;18.16;54.52;96514.44;10409688;28;20480;-19
2021/12/29 21:59:21;;;;;;;0.75;0.47;;;;;;;18.12;54.79;96518.69;10404632;28;20511;-20
2021/12/29 22:04:21;;;;;;;0.83;0.57;;;;;;;18.12;54.88;96533.03;10407035;28;20036;-21
2021/12/29 22:09:22;;;;;;;0.55;0.55;;;;;;;18.10;54.75;96532.19;10408964;28;20101;-20
2021/12/29 22:14:22;;;;;;;0.50;0.50;;;;;;;18.09;54.66;96538.09;10406226;28;20052;-20
2021/12/29 22:19:23;;;;;;;0.40;0.40;;;;;;;18.08;54.76;96536.41;10402395;28;20090;-19
2021/12/29 22:24:24;;;;;;;0.60;0.50;;;;;;;18.06;54.71;96545.69;10408328;28;20037;-20
2021/12/29 22:29:24;;;;;;;0.38;0.30;;;;;;;17.90;54.79;96518.72;10406371;28;20522;-19
2021/12/29 22:34:26;;;;;;;0.40;0.40;;;;;;;18.05;54.82;96549.06;10401662;28;20030;-20
2021/12/29 22:39:27;;;;;;;0.50;0.50;;;;;;;18.05;54.93;96561.72;10407678;28;20056;-19
2021/12/29 22:44:27;;;;;;;0.47;0.40;;;;;;;18.09;54.60;96558.38;10404661;28;20040;-19
2021/12/29 22:49:27;;;;;;;0.47;0.47;;;;;;;18.11;54.50;96564.28;10403592;28;20288;-20
2021/12/29 22:54:28;;;;;;;0.50;0.50;;;;;;;18.09;54.69;96573.56;10407454;28;20049;-19
2021/12/29 22:59:28;;;;;;;0.40;0.37;;;;;;;18.07;54.78;96568.50;10405176;28;20068;-19
2021/12/29 23:04:29;;;;;;;0.40;0.40;;;;;;;18.06;54.58;96584.53;10406194;28;20282;-19
2021/12/29 23:09:29;;;;;;;0.47;0.43;;;;;;;18.08;54.93;96599.75;10406985;28;20087;-19
2021/12/29 23:14:29;;;;;;;0.40;0.40;;;;;;;18.06;54.81;96606.47;10400141;28;20040;-20
2021/12/29 23:19:30;;;;;;;0.57;0.47;;;;;;;18.05;55.05;96614.94;10400464;28;20041;-20
2021/12/29 23:24:42;;;;;;;0.30;0.30;;;;;;;17.93;54.76;96602.28;10406543;28;20312;-20
2021/12/29 23:29:42;;;;;;;0.57;0.50;;;;;;;18.05;54.78;96608.19;10402622;28;20033;-20